Bookmark and Share
Track history (hours):
 

Oceanographic research ship Nathaniel B. Palmer (USA)

Contact: Capt. Daniel R. Herlihy, NOAA (Ret.). daniel.herlihy@usap.gov

Detailed information on ship capabilities available from University of Delaware's Ocean Information Center and ARCUS's ALIAS (Arctic Logistics Information and Support) project.

More information available from US FCC via Universal Licensing System and Coast Guard Vessel Documentation Center.

Last reported at 2014-Apr-20 20:00 UTC. Time now 2014-Apr-20 21:11 UTC.
Position S 39°30' W 149°54'.

Type: Other ship. MMSI: 366610000.

Wind from 230 at 20 knots

Barometer 1025.5 mb
Air temperature 15.2 ° C
Water temperature 17.3 ° C

NotesDate/timePositionNaut miles runAvg speedWind from/ knotsBaromVisibWave heightAir tempDewpointWater temp
2014-Apr-20 20:00S 39°30' W 149°54'6 3.0 230 / 201025.5 15.2 17.3
2014-Apr-20 18:00S 39°36' W 149°54'2412.0 080 / 201026.2 14.9 17.7
2014-Apr-20 16:00S 40°00' W 149°54'12 6.0 090 / 211026.3 13.4 17.1
2014-Apr-20 14:00S 40°12' W 149°54'0 0.0 260 / 141026.8 14.2 17.1
2014-Apr-20 12:00S 40°12' W 149°54'0 0.0 240 / 161027.1 14.1 17.1
2014-Apr-20 10:00S 40°12' W 149°54'42 7.0 080 / 181027.9 13.9 17.1
2014-Apr-20 04:00S 40°54' W 149°54'0 0.0 290 / 81028.8 12.8 16.3
2014-Apr-20 02:00S 40°54' W 149°54'6 3.0 170 / 61028.5 12.9 16.2
2014-Apr-20 00:00S 41°00' W 149°54'18 9.0 110 / 91028.6 12.8 16.4
2014-Apr-19 22:00S 41°18' W 149°54'12 6.0 110 / 51029.7 12.7 16.3
2014-Apr-19 20:00S 41°30' W 149°54'0 0.0 250 / 111030.2 12.4 16.3
2014-Apr-19 18:00S 41°30' W 149°54'6 3.0 160 / 51030.4 12.7 16.3
2014-Apr-19 16:00S 41°36' W 149°54'18 9.0 160 / 101029.9 12.5 16.3
2014-Apr-19 14:00S 41°54' W 149°54'18 9.0 210 / 31030.0 12.2 16.0
2014-Apr-19 12:00S 42°12' W 149°54'0 0.0 330 / 71030.6 12.0 15.7
2014-Apr-19 10:00S 42°12' W 149°54'42 7.0 010 / 81031.0 12.0 15.7
2014-Apr-19 04:00S 42°54' W 149°54'0 0.0 250 / 101031.2 11.8 15.1
2014-Apr-19 02:00S 42°54' W 149°54'0 0.0 030 / 71031.0 11.5 15.2
2014-Apr-19 00:00S 42°54' W 149°54'0 0.0 200 / 81031.3 10.8 15.3
2014-Apr-18 22:00S 42°54' W 149°54'18 9.0 220 / 51031.8 11.9 15.3
2014-Apr-18 20:00S 43°12' W 149°54'18 9.0 200 / 111032.0 11.7 14.9
2014-Apr-18 18:00S 43°30' W 149°54'0 0.0 350 / 141031.7 10.9 14.6
2014-Apr-18 16:00S 43°30' W 149°54'36 6.0 310 / 121031.1 10.3 14.6
2014-Apr-18 10:00S 44°06' W 149°54'12 2.0 180 / 231028.9 10.1 13.7
2014-Apr-18 04:00S 44°18' W 149°54'36 9.0 190 / 231024.5 11.6 13.8
2014-Apr-18 00:00S 44°54' W 149°54'0 0.0 320 / 301020.2 10.2 13.9
2014-Apr-17 22:00S 44°54' W 149°54'0 0.0 250 / 321018.0 10.7 13.9
2014-Apr-17 20:00S 44°54' W 149°54'36 6.0 340 / 301016.7 11.8 13.9
2014-Apr-17 14:00S 45°30' W 149°54'0 0.0 270 / 251012.4 14.0 14.0
2014-Apr-17 12:00S 45°30' W 149°54'0 0.0 330 / 241013.6 13.3 14.0
2014-Apr-17 10:00S 45°30' W 149°54'42 7.0 280 / 221014.7 13.7 14.0
2014-Apr-17 04:00S 46°12' W 149°54'0 0.0 220 / 201015.5 13.3 14.0
2014-Apr-17 02:00S 46°12' W 149°54'4 2.1 180 / 201015.8 14.0 14.0
2014-Apr-17 00:00S 46°12' W 149°48'7 3.6 240 / 201016.3 14.3 14.0
2014-Apr-16 22:00S 46°18' W 149°54'2412.0 110 / 181016.1 14.0 14.1
2014-Apr-16 20:00S 46°42' W 149°54'12 6.0 290 / 161016.1 13.8 13.5
2014-Apr-16 18:00S 46°54' W 149°54'0 0.0 300 / 181016.2 13.9 12.9
2014-Apr-16 16:00S 46°54' W 149°54'18 4.5 100 / 211015.4 13.7 13.1
2014-Apr-16 12:00S 47°12' W 149°54'18 9.0 300 / 211013.3 13.6 13.8
2014-Apr-16 10:00S 47°30' W 149°54'36 4.5 280 / 181013.8 13.3 13.1
2014-Apr-16 02:00S 48°06' W 149°54'6 3.0 290 / 111012.6 12.7 12.2
2014-Apr-16 00:00S 48°12' W 149°54'0 0.0 240 / 141013.3 13.0 12.2
2014-Apr-15 22:00S 48°12' W 149°54'0 0.0 320 / 211013.6 13.0 12.2
2014-Apr-15 20:00S 48°12' W 149°54'36 9.0 260 / 231013.2 13.3 12.2
2014-Apr-15 16:00S 48°48' W 149°54'6 3.0 340 / 291010.5 13.7 12.3
2014-Apr-15 14:00S 48°54' W 149°54'0 0.0 170 / 251012.7 13.5 12.2
2014-Apr-15 12:00S 48°54' W 149°54'0 0.0 290 / 191014.1 13.3 12.2
2014-Apr-15 10:00S 48°54' W 149°54'0 0.0 280 / 151015.5 13.0 12.2
2014-Apr-15 08:00S 48°54' W 149°54'0 0.0 270 / 181017.1 12.9 12.2
2014-Apr-15 04:00S 48°54' W 149°54'24 6.0 210 / 141018.5 12.3 12.2
2014-Apr-15 00:00S 49°18' W 149°54'6 3.0 330 / 131017.6 12.1 11.2
2014-Apr-14 22:00S 49°24' W 149°54'12 2.0 230 / 151018.6 12.4 11.1
2014-Apr-14 16:00S 49°36' W 149°54'18 9.0 020 / 151020.0 12.0 11.4
2014-Apr-14 14:00S 49°54' W 149°54'0 0.0 020 / 141020.2 11.6 11.0
2014-Apr-14 12:00S 49°54' W 149°54'0 0.0 240 / 161020.9 11.5 11.0
2014-Apr-14 10:00S 49°54' W 149°54'12 6.0 320 / 191021.5 11.1 10.9
2014-Apr-14 08:00S 50°06' W 149°54'18 4.5 060 / 261022.3 10.3 10.9
2014-Apr-14 04:00S 50°24' W 149°54'6 3.0 160 / 251023.3 9.2 11.0
2014-Apr-14 02:00S 50°30' W 149°54'18 9.0 090 / 271022.9 9.1 11.0
2014-Apr-14 00:00S 50°48' W 149°54'6 3.0 100 / 221023.5 8.2 10.9
2014-Apr-13 22:00S 50°54' W 149°54'0 0.0 260 / 261022.8 8.2 11.0
2014-Apr-13 20:00S 50°54' W 149°54'6 3.0 250 / 281021.8 8.2 11.0
2014-Apr-13 18:00S 51°00' W 149°54'2412.0 140 / 241020.3 8.6 11.3
2014-Apr-13 16:00S 51°24' W 149°54'0 0.0 250 / 71017.5 11.4 11.3
2014-Apr-13 12:00S 51°24' W 149°54'18 9.0 310 / 201014.4 11.7 11.3
2014-Apr-13 10:00S 51°42' W 149°54'12 6.0 320 / 231013.8 11.5 10.9
2014-Apr-13 08:00S 51°54' W 149°54'24 4.0 280 / 271014.7 11.3 10.7
2014-Apr-13 02:00S 52°18' W 149°54'6 3.0 330 / 291015.0 10.4 10.3
2014-Apr-13 00:00S 52°24' W 149°54'0 0.0 340 / 301018.4 10.0 10.2
2014-Apr-12 22:00S 52°24' W 149°54'0 0.0 350 / 301020.7 9.9 10.3
2014-Apr-12 20:00S 52°24' W 149°54'0 0.0 080 / 311022.5 10.4 10.4
2014-Apr-12 18:00S 52°24' W 149°54'12 6.0 290 / 301023.6 10.0 10.3
2014-Apr-12 16:00S 52°36' W 149°54'18 9.0 330 / 281023.0 9.9 10.3
2014-Apr-12 14:00S 52°54' W 149°54'0 0.0 310 / 281025.5 9.8 10.2
2014-Apr-12 12:00S 52°54' W 149°54'0 0.0 170 / 221027.0 9.3 10.2
2014-Apr-12 10:00S 52°54' W 149°54'12 6.0 300 / 241028.1 9.0 10.3
2014-Apr-12 08:00S 53°06' W 149°54'24 4.0 300 / 271026.6 9.1 10.3
2014-Apr-12 02:00S 53°30' W 149°48'18 9.0 300 / 221027.7 8.4 9.9
2014-Apr-12 00:00S 53°48' W 149°48'7 1.7 300 / 211027.8 7.7 8.4
2014-Apr-11 20:00S 53°54' W 149°54'12 6.0 190 / 181029.4 7.0 8.1
2014-Apr-11 18:00S 54°06' W 149°54'18 9.0 280 / 171028.5 6.4 6.2
2014-Apr-11 16:00S 54°24' W 149°54'0 0.0 340 / 131028.5 5.5 6.1
2014-Apr-11 14:00S 54°24' W 149°54'6 3.0 280 / 141028.5 5.1 6.1
2014-Apr-11 12:00S 54°30' W 149°54'18 9.0 250 / 151027.1 5.3 6.3
2014-Apr-11 10:00S 54°48' W 149°54'6 1.0 250 / 171025.8 5.1 6.5
2014-Apr-11 04:00S 54°54' W 149°54'10 5.2 300 / 231020.6 5.3 6.5
2014-Apr-11 02:00S 54°54' W 150°12'0 0.0 230 / 301018.4 5.2 6.2
2014-Apr-11 00:00S 54°54' W 150°12'14 3.5 260 / 291014.6 5.4 6.2
2014-Apr-10 20:00S 54°54' W 149°48'   310 / 391008.7 6.2 6.5

Dump ship's entire track history

sailing weather and tide predictions

Nathaniel B. Palmer — WBP3210 — position and weather